createdAt,value
2023-10-28T00:01:59.283Z,99590.94
2023-10-28T00:04:25.785Z,99591.41
2023-10-28T00:06:53.176Z,99594.13
2023-10-28T00:09:21.234Z,99594.94
2023-10-28T00:11:47.917Z,99595.72
2023-10-28T00:14:15.602Z,99605.03
2023-10-28T00:16:42.085Z,99603.91
2023-10-28T00:19:09.086Z,99605.16
2023-10-28T00:21:35.969Z,99606.44
2023-10-28T00:24:03.158Z,99608.03
2023-10-28T00:26:30.702Z,99607.69
2023-10-28T00:28:59.590Z,99601.91
2023-10-28T00:31:26.418Z,99606.22
2023-10-28T00:33:53.983Z,99609.88
2023-10-28T00:36:20.893Z,99600.88
2023-10-28T00:38:47.810Z,99602.03
2023-10-28T00:41:15.149Z,99613.06
2023-10-28T00:43:41.661Z,99608.41
2023-10-28T00:46:08.763Z,99614.66
2023-10-28T00:48:35.741Z,99613.50
2023-10-28T00:51:05.071Z,99614.75
2023-10-28T00:53:32.157Z,99617.16
2023-10-28T00:56:00.667Z,99622.28
2023-10-28T00:58:28.786Z,99616.47
2023-10-28T01:00:55.561Z,99611.34
2023-10-28T01:03:22.315Z,99607.50
2023-10-28T01:05:48.948Z,99616.94
2023-10-28T01:08:15.456Z,99602.84
2023-10-28T01:10:42.153Z,99616.16
2023-10-28T01:13:10.222Z,99612.63
2023-10-28T01:15:37.179Z,99604.88
2023-10-28T01:18:03.957Z,99604.88
2023-10-28T01:20:30.514Z,99606.94
2023-10-28T01:22:59.991Z,99605.81
2023-10-28T01:25:26.821Z,99609.78
2023-10-28T01:27:54.434Z,99607.88
2023-10-28T01:30:21.040Z,99605.59
2023-10-28T01:32:47.890Z,99599.47
2023-10-28T01:35:16.076Z,99604.59
2023-10-28T01:37:43.688Z,99604.25
2023-10-28T01:40:14.679Z,99601.97
2023-10-28T01:42:43.148Z,99604.38
2023-10-28T01:45:10.960Z,99604.81
2023-10-28T01:47:43.042Z,99595.84
2023-10-28T01:50:14.250Z,99604.91
2023-10-28T01:52:42.232Z,99602.19
2023-10-28T01:55:10.821Z,99600.72
2023-10-28T01:57:40.110Z,99604.69
2023-10-28T02:00:13.381Z,99600.84
2023-10-28T02:02:40.739Z,99601.63
2023-10-28T02:05:07.928Z,99603.69
2023-10-28T02:07:35.666Z,99606.06
2023-10-28T02:10:04.736Z,99599.94
2023-10-28T02:12:35.269Z,99605.41
2023-10-28T02:15:09.802Z,99601.19
2023-10-28T02:17:37.091Z,99599.59
2023-10-28T02:20:05.247Z,99605.53
2023-10-28T02:22:32.765Z,99605.66
2023-10-28T02:24:59.367Z,99594.38
2023-10-28T02:27:26.345Z,99595.19
2023-10-28T02:29:52.948Z,99595.66
2023-10-28T02:32:19.571Z,99594.50
2023-10-28T02:34:46.176Z,99591.09
2023-10-28T02:37:12.696Z,99593.13
2023-10-28T02:39:39.250Z,99589.59
2023-10-28T02:42:05.961Z,99590.38
2023-10-28T02:44:33.159Z,99590.38
2023-10-28T02:47:00.518Z,99592.31
2023-10-28T02:49:28.595Z,99600.28
2023-10-28T02:51:55.137Z,99596.75
2023-10-28T02:54:21.874Z,99597.22
2023-10-28T02:56:48.458Z,99590.16
2023-10-28T02:59:15.057Z,99594.94
2023-10-28T03:01:41.676Z,99591.06
2023-10-28T03:04:08.498Z,99589.94
2023-10-28T03:06:35.131Z,99588.78
2023-10-28T03:09:01.816Z,99591.97
2023-10-28T03:11:28.482Z,99590.84
2023-10-28T03:13:55.899Z,99594.38
2023-10-28T03:16:23.193Z,99598.34
2023-10-28T03:18:49.774Z,99597.22
2023-10-28T03:21:16.524Z,99603.47
2023-10-28T03:23:43.842Z,99601.53
2023-10-28T03:26:10.467Z,99607.47
2023-10-28T03:28:38.183Z,99607.91
2023-10-28T03:31:12.566Z,99611.09
2023-10-28T03:33:40.321Z,99608.03
2023-10-28T03:36:07.397Z,99610.06
2023-10-28T03:38:34.423Z,99605.38
2023-10-28T03:41:06.867Z,99604.25
2023-10-28T03:43:33.396Z,99609.38
2023-10-28T03:45:59.971Z,99607.09
2023-10-28T03:48:26.564Z,99605.94
2023-10-28T03:51:06.815Z,99607.53
2023-10-28T03:53:33.432Z,99602.88
2023-10-28T03:56:01.331Z,99600.59
2023-10-28T03:58:28.126Z,99606.50
2023-10-28T04:00:55.312Z,99602.63
2023-10-28T04:03:23.055Z,99597.97
2023-10-28T04:05:54.595Z,99603.09
2023-10-28T04:08:21.191Z,99594.88
2023-10-28T04:10:47.933Z,99598.41
2023-10-28T04:13:15.193Z,99591.81
2023-10-28T04:15:42.381Z,99590.66
2023-10-28T04:18:09.166Z,99597.72
2023-10-28T04:20:38.635Z,99591.47
2023-10-28T04:23:07.500Z,99599.66
2023-10-28T04:25:34.544Z,99593.06
2023-10-28T04:28:01.229Z,99600.13
2023-10-28T04:30:27.831Z,99594.66
2023-10-28T04:32:54.391Z,99594.66
2023-10-28T04:35:27.908Z,99595.44
2023-10-28T04:37:55.814Z,99595.78
2023-10-28T04:40:22.775Z,99586.69
2023-10-28T04:42:49.278Z,99588.50
2023-10-28T04:45:15.853Z,99590.44
2023-10-28T04:47:42.965Z,99590.44
2023-10-28T04:50:09.975Z,99591.25
2023-10-28T04:52:36.606Z,99588.16
2023-10-28T04:55:03.394Z,99585.09
2023-10-28T04:57:29.874Z,99588.63
2023-10-28T04:59:56.368Z,99586.69
2023-10-28T05:02:23.780Z,99583.94
2023-10-28T05:04:52.579Z,99582.81
2023-10-28T05:07:19.185Z,99582.81
2023-10-28T05:09:46.664Z,99578.94
2023-10-28T05:12:13.343Z,99581.66
2023-10-28T05:14:39.909Z,99579.72
2023-10-28T05:17:06.830Z,99585.19
2023-10-28T05:19:34.054Z,99583.25
2023-10-28T05:22:03.755Z,99586.00
2023-10-28T05:24:31.081Z,99582.47
2023-10-28T05:26:58.590Z,99583.25
2023-10-28T05:29:25.307Z,99587.13
2023-10-28T05:31:52.031Z,99587.94
2023-10-28T05:34:20.427Z,99590.31
2023-10-28T05:36:47.047Z,99580.19
2023-10-28T05:39:13.663Z,99583.72
2023-10-28T05:41:40.525Z,99583.72
2023-10-28T05:44:07.043Z,99587.25
2023-10-28T05:46:33.867Z,99583.72
2023-10-28T05:49:01.655Z,99579.03
2023-10-28T05:51:29.173Z,99589.19
2023-10-28T05:53:55.868Z,99588.03
2023-10-28T05:56:22.493Z,99583.38
2023-10-28T05:58:49.368Z,99586.91
2023-10-28T06:01:15.881Z,99589.63
2023-10-28T06:03:42.540Z,99591.56
2023-10-28T06:06:09.877Z,99585.31
2023-10-28T06:08:36.477Z,99596.25
2023-10-28T06:11:03.099Z,99595.09
2023-10-28T06:13:30.089Z,99597.38
2023-10-28T06:15:56.638Z,99595.09
2023-10-28T06:18:25.769Z,99597.84
2023-10-28T06:20:52.897Z,99602.16
2023-10-28T06:23:19.431Z,99596.25
2023-10-28T06:25:46.006Z,99592.38
2023-10-28T06:28:12.603Z,99592.38
2023-10-28T06:30:49.486Z,99597.84
2023-10-28T06:33:17.022Z,99593.97
2023-10-28T06:35:43.686Z,99600.22
2023-10-28T06:38:10.281Z,99602.97
2023-10-28T06:40:39.905Z,99599.09
2023-10-28T06:43:06.444Z,99603.41
2023-10-28T06:45:32.907Z,99600.34
2023-10-28T06:47:59.425Z,99600.69
2023-10-28T06:50:26.136Z,99601.13
2023-10-28T06:52:52.739Z,99598.41
2023-10-28T06:55:19.783Z,99599.66
2023-10-28T06:57:47.446Z,99608.31
2023-10-28T07:00:17.872Z,99598.50
2023-10-28T07:02:46.266Z,99600.97
2023-10-28T07:05:13.143Z,99600.97
2023-10-28T07:07:40.299Z,99611.56
2023-10-28T07:10:07.983Z,99611.22
2023-10-28T07:12:34.653Z,99612.81
2023-10-28T07:15:01.955Z,99616.78
2023-10-28T07:17:28.933Z,99618.84
2023-10-28T07:19:58.811Z,99614.97
2023-10-28T07:22:26.902Z,99612.69
2023-10-28T07:24:55.276Z,99618.59
2023-10-28T07:27:22.290Z,99614.38
2023-10-28T07:29:52.500Z,99621.09
2023-10-28T07:32:19.102Z,99621.19
2023-10-28T07:34:45.645Z,99624.03
2023-10-28T07:37:12.255Z,99613.16
2023-10-28T07:39:39.996Z,99617.94
2023-10-28T07:42:07.162Z,99620.00
2023-10-28T07:44:33.671Z,99625.22
2023-10-28T07:47:00.541Z,99621.34
2023-10-28T07:49:27.117Z,99634.44
2023-10-28T07:51:53.631Z,99633.72
2023-10-28T07:54:20.088Z,99640.34
2023-10-28T07:56:46.589Z,99637.25
2023-10-28T07:59:13.389Z,99638.06
2023-10-28T08:01:41.089Z,99638.84
2023-10-28T08:04:07.883Z,99646.72
2023-10-28T08:06:36.109Z,99650.25
2023-10-28T08:09:07.609Z,99644.78
2023-10-28T08:11:34.372Z,99653.00
2023-10-28T08:14:01.952Z,99654.13
2023-10-28T08:16:28.705Z,99649.91
2023-10-28T08:18:56.086Z,99652.28
2023-10-28T08:21:22.927Z,99658.56
2023-10-28T08:27:11.037Z,99658.56
2023-10-28T08:29:40.181Z,99650.34
2023-10-28T08:32:08.229Z,99653.09
2023-10-28T08:34:36.169Z,99660.16
2023-10-28T08:37:04.203Z,99655.47
2023-10-28T08:39:32.602Z,99659.44
2023-10-28T08:42:06.193Z,99660.69
2023-10-28T08:44:33.876Z,99658.41
2023-10-28T08:47:07.610Z,99660.44
2023-10-28T08:49:39.920Z,99652.66
2023-10-28T08:52:10.373Z,99650.91
2023-10-28T08:54:39.250Z,99653.16
2023-10-28T08:57:08.300Z,99643.50
2023-10-28T08:59:35.940Z,99646.34
2023-10-28T09:02:09.378Z,99652.72
2023-10-28T09:04:37.214Z,99648.59
2023-10-28T09:07:06.665Z,99653.38
2023-10-28T09:09:33.410Z,99656.13
2023-10-28T09:12:01.245Z,99656.22
2023-10-28T09:14:28.062Z,99650.03
2023-10-28T09:16:57.397Z,99656.31
2023-10-28T09:19:28.914Z,99659.03
2023-10-28T09:21:56.416Z,99659.47
2023-10-28T09:24:26.159Z,99658.34
2023-10-28T09:26:52.751Z,99667.34
2023-10-28T09:29:33.849Z,99664.25
2023-10-28T09:32:09.248Z,99667.50
2023-10-28T09:34:37.026Z,99670.78
2023-10-28T09:37:04.221Z,99672.56
2023-10-28T09:39:33.990Z,99677.41
2023-10-28T09:42:01.785Z,99674.47
2023-10-28T09:44:28.544Z,99670.84
2023-10-28T09:50:39.301Z,99679.50
2023-10-28T09:53:07.258Z,99676.81
2023-10-28T09:55:38.148Z,99671.56
2023-10-28T09:58:12.350Z,99675.63
2023-10-28T10:00:39.476Z,99676.88
2023-10-28T10:03:15.049Z,99673.97
2023-10-28T10:05:44.500Z,99683.25
2023-10-28T10:08:23.338Z,99682.81
2023-10-28T10:10:54.377Z,99683.53
2023-10-28T10:13:21.028Z,99686.97
2023-10-28T10:15:58.193Z,99692.41
2023-10-28T10:18:31.903Z,99687.72
2023-10-28T10:21:06.201Z,99701.16
2023-10-28T10:23:55.774Z,99689.47
2023-10-28T10:26:26.709Z,99694.22
2023-10-28T10:28:56.280Z,99685.72
2023-10-28T10:31:24.676Z,99687.03
2023-10-28T10:34:11.756Z,99683.31
2023-10-28T10:36:44.281Z,99689.00
2023-10-28T10:39:17.352Z,99687.28
2023-10-28T10:41:47.866Z,99694.16
2023-10-28T10:44:34.683Z,99692.69
2023-10-28T10:47:02.754Z,99689.22
2023-10-28T10:49:33.072Z,99680.56
2023-10-28T10:52:02.143Z,99688.88
2023-10-28T10:54:34.990Z,99684.09
2023-10-28T10:57:01.991Z,99681.31
2023-10-28T10:59:30.076Z,99680.91
2023-10-28T11:01:57.905Z,99685.44
2023-10-28T11:04:26.577Z,99689.34
2023-10-28T11:06:54.106Z,99687.38
2023-10-28T11:09:21.398Z,99691.72
2023-10-28T11:11:48.783Z,99690.41
2023-10-28T11:14:15.873Z,99685.78
2023-10-28T11:16:46.620Z,99684.31
2023-10-28T11:19:13.209Z,99678.53
2023-10-28T11:21:45.351Z,99678.53
2023-10-28T11:24:13.412Z,99671.88
2023-10-28T11:26:40.976Z,99674.97
2023-10-28T11:29:08.413Z,99670.66
2023-10-28T11:31:41.215Z,99675.78
2023-10-28T11:34:07.899Z,99672.31
2023-10-28T11:36:35.112Z,99666.03
2023-10-28T11:39:15.452Z,99668.56
2023-10-28T11:41:51.885Z,99665.16
2023-10-28T11:44:18.508Z,99663.41
2023-10-28T11:46:45.257Z,99664.63
2023-10-28T11:49:11.825Z,99668.19
2023-10-28T11:51:38.420Z,99676.81
2023-10-28T11:54:05.443Z,99672.56
2023-10-28T11:56:34.299Z,99668.81
2023-10-28T11:59:04.677Z,99676.88
2023-10-28T12:01:33.456Z,99673.28
2023-10-28T12:04:01.021Z,99677.56
2023-10-28T12:06:30.686Z,99685.47
2023-10-28T12:09:00.957Z,99673.66
2023-10-28T12:11:28.814Z,99687.81
2023-10-28T12:13:57.344Z,99673.66
2023-10-28T12:16:24.821Z,99683.03
2023-10-28T12:18:52.679Z,99678.25
2023-10-28T12:21:19.581Z,99673.25
2023-10-28T12:23:49.902Z,99682.28
2023-10-28T12:26:29.130Z,99683.09
2023-10-28T12:29:00.951Z,99682.44
2023-10-28T12:31:27.512Z,99691.19
2023-10-28T12:33:55.585Z,99688.47
2023-10-28T12:36:23.359Z,99687.25
2023-10-28T12:38:51.391Z,99690.31
2023-10-28T12:41:17.966Z,99682.06
2023-10-28T12:43:44.503Z,99697.91
2023-10-28T12:46:11.895Z,99698.75
2023-10-28T12:48:43.154Z,99699.91
2023-10-28T12:51:09.825Z,99706.94
2023-10-28T12:53:36.407Z,99707.38
2023-10-28T12:56:04.101Z,99709.34
2023-10-28T12:58:31.792Z,99714.03
2023-10-28T13:00:58.246Z,99716.44
2023-10-28T13:03:24.973Z,99712.50
2023-10-28T13:05:52.001Z,99710.56
2023-10-28T13:08:18.541Z,99716.00
2023-10-28T13:10:45.229Z,99707.81
2023-10-28T13:13:11.713Z,99713.72
2023-10-28T13:15:38.933Z,99714.53
2023-10-28T13:18:05.627Z,99717.34
2023-10-28T13:20:33.338Z,99713.78
2023-10-28T13:23:01.681Z,99707.50
2023-10-28T13:25:28.276Z,99718.81
2023-10-28T13:27:54.789Z,99715.63
2023-10-28T13:30:21.443Z,99724.63
2023-10-28T13:32:56.060Z,99706.53
2023-10-28T13:35:23.883Z,99712.75
2023-10-28T13:37:51.185Z,99700.53
2023-10-28T13:40:18.387Z,99710.00
2023-10-28T13:42:45.036Z,99706.53
2023-10-28T13:45:11.822Z,99701.81
2023-10-28T13:47:40.560Z,99710.88
2023-10-28T13:50:07.997Z,99706.16
2023-10-28T13:52:36.391Z,99696.69
2023-10-28T13:55:04.684Z,99696.69
2023-10-28T13:57:31.991Z,99694.41
2023-10-28T13:59:58.704Z,99698.50
2023-10-28T14:02:25.446Z,99707.28
2023-10-28T14:04:52.183Z,99690.88
2023-10-28T14:07:20.151Z,99698.75
2023-10-28T14:09:48.128Z,99701.09
2023-10-28T14:12:16.235Z,99697.84
2023-10-28T14:14:42.743Z,99702.50
2023-10-28T14:17:09.273Z,99701.69
2023-10-28T14:19:37.217Z,99698.44
2023-10-28T14:22:03.988Z,99698.81
2023-10-28T14:24:30.733Z,99709.41
2023-10-28T14:26:57.434Z,99710.97
2023-10-28T14:29:25.021Z,99703.59
2023-10-28T14:31:51.777Z,99709.56
2023-10-28T14:34:18.922Z,99711.91
2023-10-28T14:36:47.490Z,99709.56
2023-10-28T14:39:14.116Z,99702.41
2023-10-28T14:41:40.628Z,99701.63
2023-10-28T14:44:09.989Z,99696.06
2023-10-28T14:46:37.036Z,99694.47
2023-10-28T14:49:04.100Z,99692.09
2023-10-28T14:51:35.012Z,99681.75
2023-10-28T14:54:03.975Z,99686.41
2023-10-28T14:56:30.973Z,99691.47
2023-10-28T14:58:57.732Z,99700.03
2023-10-28T15:01:24.593Z,99689.38
2023-10-28T15:03:51.840Z,99683.38
2023-10-28T15:06:19.208Z,99689.13
2023-10-28T15:08:47.632Z,99692.97
2023-10-28T15:11:14.241Z,99697.63
2023-10-28T15:13:40.960Z,99702.19
2023-10-28T15:16:12.723Z,99698.25
2023-10-28T15:18:41.585Z,99693.84
2023-10-28T15:21:13.266Z,99698.47
2023-10-28T15:23:40.432Z,99704.25
2023-10-28T15:26:15.654Z,99706.22
2023-10-28T15:28:43.638Z,99695.09
2023-10-28T15:31:11.516Z,99699.72
2023-10-28T15:33:39.311Z,99705.13
2023-10-28T15:36:13.203Z,99697.22
2023-10-28T15:38:40.745Z,99707.34
2023-10-28T15:41:08.080Z,99707.25
2023-10-28T15:43:43.085Z,99703.28
2023-10-28T15:46:12.555Z,99705.97
2023-10-28T15:48:43.011Z,99700.41
2023-10-28T15:51:13.832Z,99702.59
2023-10-28T15:53:41.429Z,99694.34
2023-10-28T15:56:12.815Z,99695.41
2023-10-28T15:58:41.848Z,99698.41
2023-10-28T16:01:08.651Z,99703.13
2023-10-28T16:03:35.276Z,99703.47
2023-10-28T16:06:02.575Z,99702.25
2023-10-28T16:08:29.288Z,99697.47
2023-10-28T16:10:58.451Z,99696.25
2023-10-28T16:13:25.034Z,99696.16
2023-10-28T16:15:51.954Z,99685.81
2023-10-28T16:18:18.659Z,99681.84
2023-10-28T16:20:46.593Z,99677.47
2023-10-28T16:23:15.336Z,99676.22
2023-10-28T16:25:42.550Z,99677.31
2023-10-28T16:28:09.369Z,99678.81
2023-10-28T16:30:35.840Z,99677.56
2023-10-28T16:33:04.722Z,99680.59
2023-10-28T16:35:31.380Z,99675.81
2023-10-28T16:37:58.941Z,99676.53
2023-10-28T16:40:25.416Z,99674.50
2023-10-28T16:42:51.991Z,99689.72
2023-10-28T16:45:18.881Z,99697.91
2023-10-28T16:47:45.605Z,99707.19
2023-10-28T16:50:13.021Z,99708.34
2023-10-28T16:52:40.159Z,99717.28
2023-10-28T16:55:07.163Z,99725.78
2023-10-28T16:57:33.705Z,99724.19
2023-10-28T17:00:00.310Z,99726.56
2023-10-28T17:02:26.956Z,99716.75
2023-10-28T17:04:53.501Z,99716.31
2023-10-28T17:07:20.131Z,99701.00
2023-10-28T17:09:47.719Z,99700.91
2023-10-28T17:12:14.405Z,99693.03
2023-10-28T17:14:40.941Z,99680.84
2023-10-28T17:17:11.825Z,99691.81
2023-10-28T17:19:40.417Z,99687.47
2023-10-28T17:22:07.315Z,99679.97
2023-10-28T17:24:34.929Z,99692.06
2023-10-28T17:27:05.560Z,99687.78
2023-10-28T17:29:32.946Z,99688.91
2023-10-28T17:31:59.912Z,99688.47
2023-10-28T17:34:31.003Z,99690.78
2023-10-28T17:36:58.726Z,99689.19
2023-10-28T17:39:25.333Z,99684.41
2023-10-28T17:41:54.067Z,99673.34
2023-10-28T17:44:21.364Z,99690.16
2023-10-28T17:46:49.453Z,99681.84
2023-10-28T17:49:17.894Z,99681.75
2023-10-28T17:51:44.518Z,99687.13
2023-10-28T17:54:12.241Z,99690.22
2023-10-28T17:56:38.902Z,99683.94
2023-10-28T17:59:05.590Z,99689.78
2023-10-28T18:01:32.149Z,99690.50
2023-10-28T18:03:58.997Z,99688.47
2023-10-28T18:06:27.469Z,99698.28
2023-10-28T18:08:54.347Z,99703.31
2023-10-28T18:11:21.619Z,99697.06
2023-10-28T18:13:48.339Z,99694.66
2023-10-28T18:16:20.007Z,99699.34
2023-10-28T18:18:47.768Z,99700.50
2023-10-28T18:21:16.915Z,99696.97
2023-10-28T18:23:43.982Z,99703.69
2023-10-28T18:26:13.484Z,99706.41
2023-10-28T18:28:41.222Z,99708.72
2023-10-28T18:31:08.047Z,99707.56
2023-10-28T18:33:36.489Z,99706.41
2023-10-28T18:36:05.230Z,99699.78
2023-10-28T18:38:31.817Z,99695.91
2023-10-28T18:40:59.532Z,99690.06
2023-10-28T18:43:26.328Z,99675.22
2023-10-28T18:45:52.920Z,99670.88
2023-10-28T18:48:20.478Z,99671.69
2023-10-28T18:50:48.529Z,99667.72
2023-10-28T18:53:15.426Z,99657.91
2023-10-28T18:55:42.296Z,99659.03
2023-10-28T18:58:08.866Z,99656.31
2023-10-28T19:00:36.082Z,99653.91
2023-10-28T19:03:02.901Z,99650.38
2023-10-28T19:05:29.607Z,99648.78
2023-10-28T19:07:56.085Z,99639.78
2023-10-28T19:10:22.682Z,99646.03
2023-10-28T19:12:49.318Z,99629.59
2023-10-28T19:15:15.833Z,99628.09
2023-10-28T19:17:42.430Z,99625.72
2023-10-28T19:20:10.979Z,99617.50
2023-10-28T19:22:38.434Z,99618.66
2023-10-28T19:25:08.177Z,99621.38
2023-10-28T19:27:35.010Z,99617.84
2023-10-28T19:30:03.858Z,99609.28
2023-10-28T19:32:33.935Z,99610.06
2023-10-28T19:35:13.727Z,99610.88
2023-10-28T19:37:43.363Z,99609.72
2023-10-28T19:40:10.363Z,99612.91
2023-10-28T19:42:37.312Z,99603.97
2023-10-28T19:45:05.774Z,99604.03
2023-10-28T19:47:34.939Z,99595.91
2023-10-28T19:50:04.433Z,99602.63
2023-10-28T19:52:33.527Z,99591.75
2023-10-28T19:55:00.733Z,99593.34
2023-10-28T19:57:29.961Z,99592.19
2023-10-28T19:59:58.649Z,99587.94
2023-10-28T20:02:28.299Z,99586.44
2023-10-28T20:04:55.063Z,99600.56
2023-10-28T20:07:22.156Z,99584.56
2023-10-28T20:09:48.864Z,99575.56
2023-10-28T20:12:15.481Z,99573.97
2023-10-28T20:14:42.158Z,99574.31
2023-10-28T20:17:08.857Z,99574.22
2023-10-28T20:19:35.402Z,99576.19
2023-10-28T20:22:02.479Z,99562.47
2023-10-28T20:24:29.042Z,99571.41
2023-10-28T20:26:58.711Z,99557.25
2023-10-28T20:29:25.240Z,99559.56
2023-10-28T20:31:51.889Z,99567.34
2023-10-28T20:34:18.564Z,99549.31
2023-10-28T20:36:48.048Z,99550.09
2023-10-28T20:39:16.907Z,99543.81
2023-10-28T20:41:43.902Z,99535.16
2023-10-28T20:44:11.245Z,99532.00
2023-10-28T20:46:37.802Z,99535.09
2023-10-28T20:49:06.898Z,99532.72
2023-10-28T20:51:34.221Z,99523.72
2023-10-28T20:54:01.057Z,99509.94
2023-10-28T20:56:27.678Z,99512.66
2023-10-28T20:58:54.222Z,99506.03
2023-10-28T21:01:20.833Z,99498.16
2023-10-28T21:03:47.553Z,99496.22
2023-10-28T21:06:14.133Z,99488.38
2023-10-28T21:08:43.114Z,99477.75
2023-10-28T21:11:13.884Z,99482.44
2023-10-28T21:13:40.388Z,99466.38
2023-10-28T21:16:07.336Z,99465.56
2023-10-28T21:18:34.267Z,99456.56
2023-10-28T21:21:03.496Z,99456.56
2023-10-28T21:23:31.899Z,99447.19
2023-10-28T21:25:59.168Z,99439.41
2023-10-28T21:28:26.502Z,99439.41
2023-10-28T21:30:53.639Z,99410.84
2023-10-28T21:33:21.153Z,99404.22
2023-10-28T21:35:48.239Z,99429.69
2023-10-28T21:38:15.176Z,99432.41
2023-10-28T21:40:42.483Z,99436.38
2023-10-28T21:43:09.537Z,99440.28
2023-10-28T21:45:36.052Z,99428.16
2023-10-28T21:48:02.674Z,99434.44
2023-10-28T21:50:29.295Z,99415.69
2023-10-28T21:52:55.904Z,99398.88
2023-10-28T21:55:22.790Z,99389.50
2023-10-28T21:57:49.358Z,99372.69
2023-10-28T22:00:34.969Z,99383.28
2023-10-28T22:03:04.289Z,99379.41
2023-10-28T22:05:31.213Z,99364.53
2023-10-28T22:07:58.611Z,99359.13
2023-10-28T22:10:25.151Z,99349.75
2023-10-28T22:12:51.772Z,99350.56
2023-10-28T22:15:19.235Z,99340.38
2023-10-28T22:17:45.992Z,99346.28
2023-10-28T22:20:13.820Z,99334.97
2023-10-28T22:22:41.033Z,99329.13
2023-10-28T22:25:08.413Z,99320.53
2023-10-28T22:27:35.855Z,99313.91
2023-10-28T22:30:03.537Z,99315.50
2023-10-28T22:32:30.222Z,99310.44
2023-10-28T22:34:57.008Z,99298.31
2023-10-28T22:37:23.507Z,99261.53
2023-10-28T22:39:52.535Z,99260.38
2023-10-28T22:42:19.131Z,99259.22
2023-10-28T22:44:45.634Z,99244.34
2023-10-28T22:47:12.242Z,99256.91
2023-10-28T22:49:38.752Z,99244.78
2023-10-28T22:52:05.314Z,99260.06
2023-10-28T22:54:34.774Z,99261.63
2023-10-28T22:57:03.470Z,99252.25
2023-10-28T22:59:30.025Z,99240.13
2023-10-28T23:01:56.544Z,99236.22
2023-10-28T23:04:23.043Z,99238.25
2023-10-28T23:06:51.758Z,99232.03
2023-10-28T23:09:18.389Z,99244.63
2023-10-28T23:11:45.618Z,99238.53
2023-10-28T23:14:12.561Z,99224.94
2023-10-28T23:16:39.326Z,99230.88
2023-10-28T23:19:08.135Z,99234.41
2023-10-28T23:21:34.910Z,99227.41
2023-10-28T23:24:01.664Z,99226.31
2023-10-28T23:26:28.240Z,99225.16
2023-10-28T23:28:55.771Z,99214.59
2023-10-28T23:31:22.701Z,99215.38
2023-10-28T23:33:49.997Z,99209.91
2023-10-28T23:36:19.529Z,99209.53
2023-10-28T23:38:46.560Z,99204.41
2023-10-28T23:41:14.714Z,99189.53
2023-10-28T23:43:41.144Z,99196.19
2023-10-28T23:46:09.058Z,99200.50
2023-10-28T23:48:36.498Z,99186.78
2023-10-28T23:51:04.196Z,99180.50
2023-10-28T23:53:30.940Z,99173.88
2023-10-28T23:55:57.599Z,99177.03
2023-10-28T23:58:24.103Z,99177.81
